SII weather

Sidi Ifni Xx Airport
Sidi Ifni, Aït Baha Province, Morocco

Public forecast

Using degrees Celsius for public forecast. Weather courtesy of forecast.io.

Closest aviation weather report (METAR) to Sidi Ifni Xx Airport

Report is more than 6 hours old.

Closest report is Inezgane Airport, 69.5 nm (128.7 km) NNE. Retrieved 2019/10/13 06:30 UTC (1 month ago):

GMAA 130630Z 21003KT 3000 BR BKN008 19/19 Q1014 M2+M3

Aviation forecast (TAF) for Sidi Ifni Xx Airport

Forecast is more than 12 hours old.

Retrieved 2017/11/16 18:00 UTC (2 years ago):

TAF GMMF 161700Z 1618/1724 02008KT CAVOK BECMG 1620/1624 10004KT 8000 NSC PROB30 TEMPO 1702/1707 3000 BR BKN010